sensor_id;sensor_type;location;lat;lon;timestamp;pressure;altitude;pressure_sealevel;temperature;humidity
59367;BME280;45163;47.690;11.770;2023-05-22T00:01:34;92910.41;;;14.25;100.00
59367;BME280;45163;47.690;11.770;2023-05-22T00:04:02;92906.44;;;14.26;100.00
59367;BME280;45163;47.690;11.770;2023-05-22T00:06:29;92905.81;;;14.31;100.00
59367;BME280;45163;47.690;11.770;2023-05-22T00:08:55;92908.13;;;14.23;100.00
59367;BME280;45163;47.690;11.770;2023-05-22T00:11:21;92906.16;;;14.24;100.00
59367;BME280;45163;47.690;11.770;2023-05-22T00:13:47;92909.53;;;14.18;100.00
59367;BME280;45163;47.690;11.770;2023-05-22T00:16:13;92907.88;;;14.12;100.00
59367;BME280;45163;47.690;11.770;2023-05-22T00:18:39;92908.59;;;13.98;100.00
59367;BME280;45163;47.690;11.770;2023-05-22T00:21:09;92909.94;;;13.69;100.00
59367;BME280;45163;47.690;11.770;2023-05-22T00:23:35;92901.78;;;13.60;100.00
59367;BME280;45163;47.690;11.770;2023-05-22T00:26:01;92910.75;;;13.60;100.00
59367;BME280;45163;47.690;11.770;2023-05-22T00:28:30;92905.69;;;13.68;100.00
59367;BME280;45163;47.690;11.770;2023-05-22T00:30:59;92903.88;;;13.65;100.00
59367;BME280;45163;47.690;11.770;2023-05-22T00:33:25;92896.13;;;13.54;100.00
59367;BME280;45163;47.690;11.770;2023-05-22T00:35:51;92906.63;;;13.23;100.00
59367;BME280;45163;47.690;11.770;2023-05-22T00:38:34;92907.50;;;13.38;100.00
59367;BME280;45163;47.690;11.770;2023-05-22T00:41:01;92907.06;;;13.30;100.00
59367;BME280;45163;47.690;11.770;2023-05-22T00:43:27;92910.03;;;13.51;100.00
59367;BME280;45163;47.690;11.770;2023-05-22T00:46:04;92908.50;;;13.50;100.00
59367;BME280;45163;47.690;11.770;2023-05-22T00:48:32;92908.34;;;13.53;100.00
59367;BME280;45163;47.690;11.770;2023-05-22T00:50:58;92902.13;;;13.43;100.00
59367;BME280;45163;47.690;11.770;2023-05-22T00:53:27;92907.41;;;13.56;100.00
59367;BME280;45163;47.690;11.770;2023-05-22T00:55:53;92906.06;;;13.52;100.00
59367;BME280;45163;47.690;11.770;2023-05-22T00:58:20;92909.13;;;13.44;100.00
59367;BME280;45163;47.690;11.770;2023-05-22T01:00:55;92904.41;;;13.45;100.00
59367;BME280;45163;47.690;11.770;2023-05-22T01:03:22;92909.63;;;13.34;100.00
59367;BME280;45163;47.690;11.770;2023-05-22T01:05:51;92911.34;;;13.13;100.00
59367;BME280;45163;47.690;11.770;2023-05-22T01:08:18;92909.66;;;13.15;100.00
59367;BME280;45163;47.690;11.770;2023-05-22T01:10:44;92910.25;;;13.29;100.00
59367;BME280;45163;47.690;11.770;2023-05-22T01:19:00;92907.47;;;13.47;100.00
59367;BME280;45163;47.690;11.770;2023-05-22T01:32:19;92909.81;;;13.03;100.00
59367;BME280;45163;47.690;11.770;2023-05-22T01:34:52;92912.13;;;13.04;100.00
59367;BME280;45163;47.690;11.770;2023-05-22T01:37:19;92920.94;;;12.99;100.00
59367;BME280;45163;47.690;11.770;2023-05-22T01:39:47;92921.88;;;12.96;100.00
59367;BME280;45163;47.690;11.770;2023-05-22T01:42:14;92928.56;;;12.95;100.00
59367;BME280;45163;47.690;11.770;2023-05-22T01:44:40;92920.66;;;12.88;100.00
59367;BME280;45163;47.690;11.770;2023-05-22T01:47:06;92922.19;;;12.89;100.00
59367;BME280;45163;47.690;11.770;2023-05-22T01:49:33;92930.84;;;12.87;100.00
59367;BME280;45163;47.690;11.770;2023-05-22T01:52:21;92929.31;;;12.95;100.00
59367;BME280;45163;47.690;11.770;2023-05-22T01:55:05;92934.06;;;12.77;100.00
59367;BME280;45163;47.690;11.770;2023-05-22T01:57:40;92931.91;;;12.53;100.00
59367;BME280;45163;47.690;11.770;2023-05-22T02:00:10;92941.34;;;12.43;100.00
59367;BME280;45163;47.690;11.770;2023-05-22T02:02:41;92939.66;;;12.45;100.00
59367;BME280;45163;47.690;11.770;2023-05-22T02:05:09;92935.59;;;12.50;100.00
59367;BME280;45163;47.690;11.770;2023-05-22T02:07:38;92941.22;;;12.46;100.00
59367;BME280;45163;47.690;11.770;2023-05-22T02:10:08;92939.84;;;12.42;100.00
59367;BME280;45163;47.690;11.770;2023-05-22T02:12:36;92937.53;;;12.50;100.00
59367;BME280;45163;47.690;11.770;2023-05-22T02:15:03;92934.22;;;12.55;100.00
59367;BME280;45163;47.690;11.770;2023-05-22T02:17:30;92941.81;;;12.51;100.00
59367;BME280;45163;47.690;11.770;2023-05-22T02:19:56;92935.59;;;12.50;100.00
59367;BME280;45163;47.690;11.770;2023-05-22T02:22:22;92933.00;;;12.46;100.00
59367;BME280;45163;47.690;11.770;2023-05-22T02:24:48;92930.41;;;12.43;100.00
59367;BME280;45163;47.690;11.770;2023-05-22T02:27:14;92927.97;;;12.45;100.00
59367;BME280;45163;47.690;11.770;2023-05-22T02:29:41;92931.94;;;12.44;100.00
59367;BME280;45163;47.690;11.770;2023-05-22T02:32:07;92934.19;;;12.36;100.00
59367;BME280;45163;47.690;11.770;2023-05-22T02:34:33;92937.53;;;12.31;100.00
59367;BME280;45163;47.690;11.770;2023-05-22T02:37:00;92925.69;;;12.25;100.00
59367;BME280;45163;47.690;11.770;2023-05-22T02:39:29;92917.44;;;12.16;100.00
59367;BME280;45163;47.690;11.770;2023-05-22T02:41:55;92925.66;;;12.16;100.00
59367;BME280;45163;47.690;11.770;2023-05-22T02:44:21;92933.91;;;12.25;100.00
59367;BME280;45163;47.690;11.770;2023-05-22T02:46:47;92932.34;;;12.06;100.00
59367;BME280;45163;47.690;11.770;2023-05-22T02:49:13;92930.63;;;11.99;100.00
59367;BME280;45163;47.690;11.770;2023-05-22T02:51:39;92938.84;;;11.99;100.00
59367;BME280;45163;47.690;11.770;2023-05-22T02:54:05;92937.78;;;11.96;100.00
59367;BME280;45163;47.690;11.770;2023-05-22T02:56:31;92932.97;;;11.79;100.00
59367;BME280;45163;47.690;11.770;2023-05-22T02:58:57;92930.94;;;11.61;100.00
59367;BME280;45163;47.690;11.770;2023-05-22T03:01:23;92943.69;;;11.55;100.00
59367;BME280;45163;47.690;11.770;2023-05-22T03:03:51;92949.56;;;11.44;100.00
59367;BME280;45163;47.690;11.770;2023-05-22T03:06:19;92946.09;;;11.53;100.00
59367;BME280;45163;47.690;11.770;2023-05-22T03:08:46;92956.94;;;11.65;100.00
59367;BME280;45163;47.690;11.770;2023-05-22T03:11:13;92960.00;;;11.67;100.00
59367;BME280;45163;47.690;11.770;2023-05-22T03:13:39;92957.53;;;11.60;100.00
59367;BME280;45163;47.690;11.770;2023-05-22T03:16:05;92959.25;;;11.67;100.00
59367;BME280;45163;47.690;11.770;2023-05-22T03:18:31;92960.00;;;11.67;100.00
59367;BME280;45163;47.690;11.770;2023-05-22T03:20:57;92964.47;;;11.52;100.00
59367;BME280;45163;47.690;11.770;2023-05-22T03:23:23;92966.31;;;11.55;100.00
59367;BME280;45163;47.690;11.770;2023-05-22T03:25:49;92959.16;;;11.48;100.00
59367;BME280;45163;47.690;11.770;2023-05-22T03:28:15;92970.13;;;11.58;100.00
59367;BME280;45163;47.690;11.770;2023-05-22T03:30:41;92963.16;;;11.66;100.00
59367;BME280;45163;47.690;11.770;2023-05-22T03:33:07;92968.69;;;11.75;100.00
59367;BME280;45163;47.690;11.770;2023-05-22T03:35:33;92968.38;;;11.73;100.00
59367;BME280;45163;47.690;11.770;2023-05-22T03:37:59;92972.63;;;11.74;100.00
59367;BME280;45163;47.690;11.770;2023-05-22T03:40:25;92975.31;;;11.65;100.00
59367;BME280;45163;47.690;11.770;2023-05-22T03:42:51;92970.94;;;11.67;100.00
59367;BME280;45163;47.690;11.770;2023-05-22T03:45:17;92972.34;;;11.81;100.00
59367;BME280;45163;47.690;11.770;2023-05-22T03:47:43;92975.72;;;11.85;100.00
59367;BME280;45163;47.690;11.770;2023-05-22T03:50:09;92971.03;;;11.95;100.00
59367;BME280;45163;47.690;11.770;2023-05-22T03:52:35;92971.84;;;11.95;100.00
59367;BME280;45163;47.690;11.770;2023-05-22T03:55:01;92973.09;;;11.82;100.00
59367;BME280;45163;47.690;11.770;2023-05-22T03:57:28;92969.88;;;11.74;100.00
59367;BME280;45163;47.690;11.770;2023-05-22T03:59:54;92977.19;;;11.77;100.00
59367;BME280;45163;47.690;11.770;2023-05-22T04:02:20;92986.00;;;11.81;100.00
59367;BME280;45163;47.690;11.770;2023-05-22T04:04:46;92979.44;;;11.69;100.00
59367;BME280;45163;47.690;11.770;2023-05-22T04:07:15;92987.13;;;11.62;100.00
59367;BME280;45163;47.690;11.770;2023-05-22T04:09:43;92987.25;;;11.80;100.00
59367;BME280;45163;47.690;11.770;2023-05-22T04:12:09;92992.03;;;11.67;100.00
59367;BME280;45163;47.690;11.770;2023-05-22T04:14:35;92990.22;;;11.73;100.00
59367;BME280;45163;47.690;11.770;2023-05-22T04:17:01;92987.53;;;11.82;100.00
59367;BME280;45163;47.690;11.770;2023-05-22T04:19:27;92991.38;;;11.85;100.00
59367;BME280;45163;47.690;11.770;2023-05-22T04:21:56;92993.94;;;11.57;100.00
59367;BME280;45163;47.690;11.770;2023-05-22T04:24:22;92994.66;;;11.70;100.00
59367;BME280;45163;47.690;11.770;2023-05-22T04:26:48;93002.69;;;11.74;100.00
59367;BME280;45163;47.690;11.770;2023-05-22T04:29:14;93005.91;;;11.82;100.00
59367;BME280;45163;47.690;11.770;2023-05-22T04:31:44;93009.50;;;11.91;100.00
59367;BME280;45163;47.690;11.770;2023-05-22T04:34:11;93004.81;;;12.01;100.00
59367;BME280;45163;47.690;11.770;2023-05-22T04:36:40;93006.50;;;12.08;100.00
59367;BME280;45163;47.690;11.770;2023-05-22T04:39:06;93014.28;;;12.18;100.00
59367;BME280;45163;47.690;11.770;2023-05-22T04:41:32;93019.03;;;12.27;100.00
59367;BME280;45163;47.690;11.770;2023-05-22T04:43:58;93014.44;;;12.24;100.00
59367;BME280;45163;47.690;11.770;2023-05-22T04:46:25;93008.78;;;12.09;100.00
59367;BME280;45163;47.690;11.770;2023-05-22T04:48:53;93018.69;;;12.16;100.00
59367;BME280;45163;47.690;11.770;2023-05-22T04:51:19;93018.88;;;12.21;100.00
59367;BME280;45163;47.690;11.770;2023-05-22T04:53:46;93023.47;;;12.34;100.00
59367;BME280;45163;47.690;11.770;2023-05-22T04:56:14;93026.50;;;12.36;100.00
59367;BME280;45163;47.690;11.770;2023-05-22T04:58:40;93023.63;;;12.58;100.00
59367;BME280;45163;47.690;11.770;2023-05-22T05:01:06;93025.03;;;12.71;100.00
59367;BME280;45163;47.690;11.770;2023-05-22T05:03:33;93021.09;;;13.00;100.00
59367;BME280;45163;47.690;11.770;2023-05-22T05:05:59;93023.50;;;13.16;100.00
59367;BME280;45163;47.690;11.770;2023-05-22T05:08:25;93021.84;;;13.37;100.00
59367;BME280;45163;47.690;11.770;2023-05-22T05:10:51;93019.69;;;13.60;100.00
59367;BME280;45163;47.690;11.770;2023-05-22T05:13:17;93013.38;;;13.78;100.00
59367;BME280;45163;47.690;11.770;2023-05-22T05:15:43;93015.59;;;13.98;100.00
59367;BME280;45163;47.690;11.770;2023-05-22T05:18:09;93011.44;;;14.11;100.00
59367;BME280;45163;47.690;11.770;2023-05-22T05:20:36;93015.41;;;14.43;100.00
59367;BME280;45163;47.690;11.770;2023-05-22T05:23:02;93008.72;;;14.68;100.00
59367;BME280;45163;47.690;11.770;2023-05-22T05:25:28;93006.25;;;14.70;100.00
59367;BME280;45163;47.690;11.770;2023-05-22T05:27:57;93007.47;;;14.93;100.00
59367;BME280;45163;47.690;11.770;2023-05-22T05:30:23;93004.13;;;15.13;100.00
59367;BME280;45163;47.690;11.770;2023-05-22T05:32:49;93010.28;;;15.38;100.00
59367;BME280;45163;47.690;11.770;2023-05-22T05:35:15;93001.25;;;15.76;100.00
59367;BME280;45163;47.690;11.770;2023-05-22T05:37:41;93004.53;;;15.95;100.00
59367;BME280;45163;47.690;11.770;2023-05-22T05:40:08;92999.50;;;16.08;100.00
59367;BME280;45163;47.690;11.770;2023-05-22T05:42:34;92998.84;;;16.34;100.00
59367;BME280;45163;47.690;11.770;2023-05-22T05:45:00;92985.75;;;16.43;100.00
59367;BME280;45163;47.690;11.770;2023-05-22T05:47:26;92986.91;;;16.57;100.00
59367;BME280;45163;47.690;11.770;2023-05-22T05:49:54;92991.78;;;16.83;100.00
59367;BME280;45163;47.690;11.770;2023-05-22T05:52:20;92983.66;;;17.14;100.00
59367;BME280;45163;47.690;11.770;2023-05-22T05:54:46;92985.53;;;17.55;100.00
59367;BME280;45163;47.690;11.770;2023-05-22T05:57:13;92985.88;;;17.88;98.51
59367;BME280;45163;47.690;11.770;2023-05-22T05:59:39;92986.25;;;18.02;98.12
59367;BME280;45163;47.690;11.770;2023-05-22T06:02:05;92988.72;;;18.31;96.06
59367;BME280;45163;47.690;11.770;2023-05-22T06:04:31;92994.22;;;18.69;96.49
59367;BME280;45163;47.690;11.770;2023-05-22T06:06:57;92988.72;;;19.28;92.63
59367;BME280;45163;47.690;11.770;2023-05-22T06:09:23;92995.91;;;19.74;88.82
59367;BME280;45163;47.690;11.770;2023-05-22T06:11:49;92993.41;;;20.27;87.87
59367;BME280;45163;47.690;11.770;2023-05-22T06:14:18;92993.91;;;19.86;82.66
59367;BME280;45163;47.690;11.770;2023-05-22T06:16:44;92994.41;;;20.63;81.19
59367;BME280;45163;47.690;11.770;2023-05-22T06:19:10;92993.28;;;21.00;80.00
59367;BME280;45163;47.690;11.770;2023-05-22T06:21:37;92983.47;;;21.57;79.00
59367;BME280;45163;47.690;11.770;2023-05-22T06:24:03;92983.50;;;22.28;75.40
59367;BME280;45163;47.690;11.770;2023-05-22T06:26:29;92975.34;;;22.66;72.02
59367;BME280;45163;47.690;11.770;2023-05-22T06:28:55;92977.19;;;23.07;67.27
59367;BME280;45163;47.690;11.770;2023-05-22T06:31:21;92973.06;;;23.14;58.77
59367;BME280;45163;47.690;11.770;2023-05-22T06:33:47;92981.00;;;23.28;64.96
59367;BME280;45163;47.690;11.770;2023-05-22T06:36:13;92974.00;;;23.97;62.57
59367;BME280;45163;47.690;11.770;2023-05-22T06:38:39;92972.63;;;23.47;55.02
59367;BME280;45163;47.690;11.770;2023-05-22T06:41:05;92968.03;;;22.87;55.42
59367;BME280;45163;47.690;11.770;2023-05-22T06:43:32;92968.13;;;23.44;62.33
59367;BME280;45163;47.690;11.770;2023-05-22T06:45:58;92968.00;;;24.25;60.35
59367;BME280;45163;47.690;11.770;2023-05-22T06:48:24;92963.50;;;24.35;58.25
59367;BME280;45163;47.690;11.770;2023-05-22T06:50:51;92964.69;;;25.12;57.58
59367;BME280;45163;47.690;11.770;2023-05-22T06:53:17;92952.78;;;25.25;54.07
59367;BME280;45163;47.690;11.770;2023-05-22T06:55:43;92962.06;;;25.67;54.54
59367;BME280;45163;47.690;11.770;2023-05-22T06:58:09;92956.00;;;25.90;51.01
59367;BME280;45163;47.690;11.770;2023-05-22T07:00:38;92958.03;;;25.89;47.16
59367;BME280;45163;47.690;11.770;2023-05-22T07:03:04;92960.69;;;26.50;46.82
59367;BME280;45163;47.690;11.770;2023-05-22T07:05:43;92956.03;;;26.52;43.36
59367;BME280;45163;47.690;11.770;2023-05-22T07:08:09;92963.22;;;27.11;43.67
59367;BME280;45163;47.690;11.770;2023-05-22T07:10:35;92960.03;;;27.43;41.51
59367;BME280;45163;47.690;11.770;2023-05-22T07:13:01;92960.22;;;27.81;40.53
59367;BME280;45163;47.690;11.770;2023-05-22T07:15:27;92954.88;;;28.29;38.90
59367;BME280;45163;47.690;11.770;2023-05-22T07:17:53;92959.06;;;28.59;39.51
59367;BME280;45163;47.690;11.770;2023-05-22T07:20:19;92963.34;;;29.13;38.81
59367;BME280;45163;47.690;11.770;2023-05-22T07:22:45;92964.84;;;28.91;37.32
59367;BME280;45163;47.690;11.770;2023-05-22T07:25:11;92960.69;;;29.38;33.46
59367;BME280;45163;47.690;11.770;2023-05-22T07:27:37;92964.66;;;29.91;34.13
59367;BME280;45163;47.690;11.770;2023-05-22T07:30:06;92960.13;;;29.95;33.19
59367;BME280;45163;47.690;11.770;2023-05-22T07:32:32;92954.81;;;30.15;33.44
59367;BME280;45163;47.690;11.770;2023-05-22T07:34:58;92951.47;;;28.08;32.93
59367;BME280;45163;47.690;11.770;2023-05-22T07:37:24;92958.69;;;28.85;32.31
59367;BME280;45163;47.690;11.770;2023-05-22T07:39:50;92946.56;;;29.69;32.40
59367;BME280;45163;47.690;11.770;2023-05-22T07:42:16;92943.63;;;30.32;31.03
59367;BME280;45163;47.690;11.770;2023-05-22T07:44:42;92952.03;;;31.32;32.23
59367;BME280;45163;47.690;11.770;2023-05-22T07:47:08;92943.69;;;30.99;28.52
59367;BME280;45163;47.690;11.770;2023-05-22T07:49:37;92941.91;;;30.37;29.08
59367;BME280;45163;47.690;11.770;2023-05-22T07:52:06;92943.78;;;31.26;26.94
59367;BME280;45163;47.690;11.770;2023-05-22T07:54:32;92940.81;;;31.59;28.34
59367;BME280;45163;47.690;11.770;2023-05-22T07:56:58;92939.72;;;31.89;30.39
59367;BME280;45163;47.690;11.770;2023-05-22T07:59:28;92940.00;;;31.49;26.20
59367;BME280;45163;47.690;11.770;2023-05-22T08:01:54;92937.66;;;30.53;28.07
59367;BME280;45163;47.690;11.770;2023-05-22T08:04:20;92939.16;;;32.18;28.12
59367;BME280;45163;47.690;11.770;2023-05-22T08:06:49;92941.91;;;31.29;28.41
59367;BME280;45163;47.690;11.770;2023-05-22T08:09:16;92940.47;;;31.72;25.20
59367;BME280;45163;47.690;11.770;2023-05-22T08:11:44;92936.81;;;31.10;26.93
59367;BME280;45163;47.690;11.770;2023-05-22T08:14:10;92934.53;;;30.66;26.84
59367;BME280;45163;47.690;11.770;2023-05-22T08:16:36;92940.91;;;31.34;25.77
59367;BME280;45163;47.690;11.770;2023-05-22T08:19:03;92938.97;;;31.19;26.81
59367;BME280;45163;47.690;11.770;2023-05-22T08:21:30;92935.69;;;31.31;25.67
59367;BME280;45163;47.690;11.770;2023-05-22T08:24:00;92932.75;;;31.04;24.86
59367;BME280;45163;47.690;11.770;2023-05-22T08:26:26;92928.91;;;30.66;25.80
59367;BME280;45163;47.690;11.770;2023-05-22T08:28:52;92936.81;;;31.10;24.82
59367;BME280;45163;47.690;11.770;2023-05-22T08:31:18;92932.88;;;31.65;24.85
59367;BME280;45163;47.690;11.770;2023-05-22T08:33:44;92934.97;;;31.05;23.47
59367;BME280;45163;47.690;11.770;2023-05-22T08:36:10;92930.75;;;31.83;25.07
59367;BME280;45163;47.690;11.770;2023-05-22T08:38:37;92937.41;;;31.43;24.36
59367;BME280;45163;47.690;11.770;2023-05-22T08:41:03;92935.44;;;31.54;23.51
59367;BME280;45163;47.690;11.770;2023-05-22T08:43:30;92926.81;;;32.13;23.69
59367;BME280;45163;47.690;11.770;2023-05-22T08:45:59;92936.56;;;31.85;25.14
59367;BME280;45163;47.690;11.770;2023-05-22T08:48:29;92926.16;;;32.05;24.47
59367;BME280;45163;47.690;11.770;2023-05-22T08:50:58;92930.56;;;31.37;25.13
59367;BME280;45163;47.690;11.770;2023-05-22T08:53:27;92928.94;;;31.26;24.54
59367;BME280;45163;47.690;11.770;2023-05-22T08:55:54;92929.84;;;31.81;22.37
59367;BME280;45163;47.690;11.770;2023-05-22T08:58:20;92927.25;;;31.06;23.26
59367;BME280;45163;47.690;11.770;2023-05-22T09:00:47;92929.78;;;33.35;23.11
59367;BME280;45163;47.690;11.770;2023-05-22T09:03:14;92932.47;;;31.09;23.34
59367;BME280;45163;47.690;11.770;2023-05-22T09:05:40;92926.16;;;32.32;23.09
59367;BME280;45163;47.690;11.770;2023-05-22T09:08:06;92927.16;;;32.91;21.61
59367;BME280;45163;47.690;11.770;2023-05-22T09:10:33;92927.19;;;32.54;22.23
59367;BME280;45163;47.690;11.770;2023-05-22T09:13:06;92920.94;;;32.56;22.51
59367;BME280;45163;47.690;11.770;2023-05-22T09:15:37;92925.03;;;33.28;22.12
59367;BME280;45163;47.690;11.770;2023-05-22T09:18:04;92925.94;;;33.99;22.01
59367;BME280;45163;47.690;11.770;2023-05-22T09:20:34;92925.06;;;33.86;22.49
59367;BME280;45163;47.690;11.770;2023-05-22T09:23:02;92920.41;;;34.10;22.76
59367;BME280;45163;47.690;11.770;2023-05-22T09:25:35;92927.38;;;34.79;20.81
59367;BME280;45163;47.690;11.770;2023-05-22T09:28:01;92927.97;;;34.37;21.52
59367;BME280;45163;47.690;11.770;2023-05-22T09:30:27;92925.06;;;33.67;21.80
59367;BME280;45163;47.690;11.770;2023-05-22T09:32:53;92919.53;;;32.84;21.37
59367;BME280;45163;47.690;11.770;2023-05-22T09:35:19;92925.22;;;33.59;20.68
59367;BME280;45163;47.690;11.770;2023-05-22T09:37:48;92927.47;;;32.48;22.43
59367;BME280;45163;47.690;11.770;2023-05-22T09:40:14;92924.94;;;34.44;21.05
59367;BME280;45163;47.690;11.770;2023-05-22T09:42:42;92918.53;;;34.44;21.67
59367;BME280;45163;47.690;11.770;2023-05-22T09:45:10;92914.53;;;34.37;20.89
59367;BME280;45163;47.690;11.770;2023-05-22T09:47:37;92925.63;;;33.85;20.47
59367;BME280;45163;47.690;11.770;2023-05-22T09:50:04;92928.94;;;33.91;20.88
59367;BME280;45163;47.690;11.770;2023-05-22T09:52:36;92926.78;;;34.30;19.96
59367;BME280;45163;47.690;11.770;2023-05-22T09:55:06;92923.41;;;34.63;20.19
59367;BME280;45163;47.690;11.770;2023-05-22T09:57:43;92921.91;;;33.92;21.63
59367;BME280;45163;47.690;11.770;2023-05-22T10:00:11;92913.72;;;33.96;20.20
59367;BME280;45163;47.690;11.770;2023-05-22T10:02:52;92920.84;;;33.39;20.99
59367;BME280;45163;47.690;11.770;2023-05-22T10:05:19;92912.97;;;33.57;21.12
59367;BME280;45163;47.690;11.770;2023-05-22T10:07:50;92916.34;;;34.33;21.04
59367;BME280;45163;47.690;11.770;2023-05-22T10:10:20;92909.53;;;33.78;21.40
59367;BME280;45163;47.690;11.770;2023-05-22T10:12:50;92905.94;;;34.66;20.81
59367;BME280;45163;47.690;11.770;2023-05-22T10:15:20;92904.66;;;33.49;22.40
59367;BME280;45163;47.690;11.770;2023-05-22T10:17:47;92909.03;;;34.30;21.51
59367;BME280;45163;47.690;11.770;2023-05-22T10:20:14;92909.38;;;35.70;20.81
59367;BME280;45163;47.690;11.770;2023-05-22T10:22:41;92902.78;;;34.72;21.22
59367;BME280;45163;47.690;11.770;2023-05-22T10:25:10;92899.28;;;35.57;21.48
59367;BME280;45163;47.690;11.770;2023-05-22T10:27:38;92899.28;;;36.24;20.22
59367;BME280;45163;47.690;11.770;2023-05-22T10:32:49;92899.81;;;35.65;20.87
59367;BME280;45163;47.690;11.770;2023-05-22T10:35:19;92899.16;;;34.81;21.70
59367;BME280;45163;47.690;11.770;2023-05-22T10:37:49;92897.47;;;35.62;20.00
59367;BME280;45163;47.690;11.770;2023-05-22T10:40:21;92905.09;;;35.59;19.63
59367;BME280;45163;47.690;11.770;2023-05-22T10:43:01;92905.22;;;34.15;21.28
59367;BME280;45163;47.690;11.770;2023-05-22T10:45:27;92898.84;;;33.47;23.05
59367;BME280;45163;47.690;11.770;2023-05-22T10:48:02;92893.75;;;33.36;22.83
59367;BME280;45163;47.690;11.770;2023-05-22T10:50:34;92897.13;;;32.49;23.94
59367;BME280;45163;47.690;11.770;2023-05-22T10:55:55;92898.22;;;33.78;24.06
59367;BME280;45163;47.690;11.770;2023-05-22T10:58:28;92897.19;;;33.83;23.20
59367;BME280;45163;47.690;11.770;2023-05-22T11:03:55;92888.75;;;32.78;23.22
59367;BME280;45163;47.690;11.770;2023-05-22T11:06:38;92884.13;;;32.09;24.47
59367;BME280;45163;47.690;11.770;2023-05-22T11:09:39;92886.47;;;33.33;23.48
59367;BME280;45163;47.690;11.770;2023-05-22T11:12:26;92879.31;;;33.70;22.39
59367;BME280;45163;47.690;11.770;2023-05-22T11:17:23;92883.03;;;33.63;22.62
59367;BME280;45163;47.690;11.770;2023-05-22T11:20:20;92886.84;;;32.90;24.03
59367;BME280;45163;47.690;11.770;2023-05-22T11:23:07;92886.00;;;33.17;24.35
59367;BME280;45163;47.690;11.770;2023-05-22T11:25:33;92877.38;;;33.25;24.48
59367;BME280;45163;47.690;11.770;2023-05-22T11:28:02;92871.25;;;33.18;24.69
59367;BME280;45163;47.690;11.770;2023-05-22T11:30:28;92872.88;;;30.53;27.38
59367;BME280;45163;47.690;11.770;2023-05-22T11:32:58;92867.88;;;32.00;25.76
59367;BME280;45163;47.690;11.770;2023-05-22T11:35:26;92869.28;;;31.64;25.97
59367;BME280;45163;47.690;11.770;2023-05-22T11:37:53;92871.22;;;31.89;26.53
59367;BME280;45163;47.690;11.770;2023-05-22T11:40:23;92875.09;;;31.66;26.77
59367;BME280;45163;47.690;11.770;2023-05-22T11:42:51;92870.31;;;32.13;26.18
59367;BME280;45163;47.690;11.770;2023-05-22T11:45:17;92864.06;;;30.74;27.70
59367;BME280;45163;47.690;11.770;2023-05-22T11:47:44;92862.38;;;32.02;25.58
59367;BME280;45163;47.690;11.770;2023-05-22T11:50:10;92869.44;;;32.11;24.96
59367;BME280;45163;47.690;11.770;2023-05-22T11:52:40;92871.84;;;32.51;25.74
59367;BME280;45163;47.690;11.770;2023-05-22T11:55:07;92875.28;;;33.64;23.59
59367;BME280;45163;47.690;11.770;2023-05-22T11:57:34;92872.16;;;33.60;23.67
59367;BME280;45163;47.690;11.770;2023-05-22T12:00:05;92874.63;;;32.88;23.68
59367;BME280;45163;47.690;11.770;2023-05-22T12:02:33;92872.97;;;31.40;25.62
59367;BME280;45163;47.690;11.770;2023-05-22T12:04:59;92866.72;;;32.03;25.65
59367;BME280;45163;47.690;11.770;2023-05-22T12:07:25;92871.34;;;32.08;26.00
59367;BME280;45163;47.690;11.770;2023-05-22T12:09:55;92871.91;;;31.80;25.52
59367;BME280;45163;47.690;11.770;2023-05-22T12:12:21;92876.69;;;31.25;26.18
59367;BME280;45163;47.690;11.770;2023-05-22T12:14:47;92872.31;;;31.32;25.75
59367;BME280;45163;47.690;11.770;2023-05-22T12:17:15;92870.47;;;31.09;27.07
59367;BME280;45163;47.690;11.770;2023-05-22T12:19:42;92875.44;;;31.01;27.32
59367;BME280;45163;47.690;11.770;2023-05-22T12:22:09;92870.44;;;32.06;26.24
59367;BME280;45163;47.690;11.770;2023-05-22T12:24:40;92874.53;;;33.44;24.76
59367;BME280;45163;47.690;11.770;2023-05-22T12:27:08;92873.94;;;33.26;24.87
59367;BME280;45163;47.690;11.770;2023-05-22T12:29:35;92869.59;;;31.86;25.19
59367;BME280;45163;47.690;11.770;2023-05-22T12:32:02;92870.56;;;32.35;25.40
59367;BME280;45163;47.690;11.770;2023-05-22T12:34:35;92857.13;;;33.47;25.06
59367;BME280;45163;47.690;11.770;2023-05-22T12:37:01;92858.16;;;33.13;25.01
59367;BME280;45163;47.690;11.770;2023-05-22T12:39:27;92859.13;;;32.79;24.19
59367;BME280;45163;47.690;11.770;2023-05-22T12:41:55;92862.72;;;31.62;26.84
59367;BME280;45163;47.690;11.770;2023-05-22T12:44:21;92861.47;;;31.90;26.37
59367;BME280;45163;47.690;11.770;2023-05-22T12:46:47;92865.59;;;32.16;25.26
59367;BME280;45163;47.690;11.770;2023-05-22T12:49:13;92864.69;;;34.03;22.28
59367;BME280;45163;47.690;11.770;2023-05-22T12:51:39;92859.78;;;33.84;21.94
59367;BME280;45163;47.690;11.770;2023-05-22T12:54:06;92851.84;;;34.43;21.47
59367;BME280;45163;47.690;11.770;2023-05-22T12:56:32;92853.56;;;34.89;20.79
59367;BME280;45163;47.690;11.770;2023-05-22T12:58:58;92854.03;;;33.53;23.06
59367;BME280;45163;47.690;11.770;2023-05-22T13:01:24;92847.16;;;34.88;22.90
59367;BME280;45163;47.690;11.770;2023-05-22T13:03:51;92854.38;;;35.65;22.39
59367;BME280;45163;47.690;11.770;2023-05-22T13:06:18;92864.38;;;36.56;23.26
59367;BME280;45163;47.690;11.770;2023-05-22T13:08:44;92856.25;;;37.47;21.10
59367;BME280;45163;47.690;11.770;2023-05-22T13:11:10;92849.25;;;35.85;19.68
59367;BME280;45163;47.690;11.770;2023-05-22T13:13:36;92852.22;;;35.76;23.56
59367;BME280;45163;47.690;11.770;2023-05-22T13:16:03;92852.25;;;34.18;27.89